sensor_id;sensor_type;location;lat;lon;timestamp;pressure;altitude;pressure_sealevel;temperature;humidity
69772;BME280;57046;45.988;18.664;2022-07-29T00:01:28;100539.53;;;19.36;68.39
69772;BME280;57046;45.988;18.664;2022-07-29T00:03:53;100541.50;;;19.35;68.57
69772;BME280;57046;45.988;18.664;2022-07-29T00:06:19;100539.22;;;19.41;68.17
69772;BME280;57046;45.988;18.664;2022-07-29T00:08:44;100538.31;;;19.33;67.71
69772;BME280;57046;45.988;18.664;2022-07-29T00:11:09;100532.56;;;19.42;66.68
69772;BME280;57046;45.988;18.664;2022-07-29T00:13:35;100526.22;;;19.38;68.30
69772;BME280;57046;45.988;18.664;2022-07-29T00:16:00;100516.72;;;19.24;68.85
69772;BME280;57046;45.988;18.664;2022-07-29T00:18:25;100525.34;;;19.26;69.17
69772;BME280;57046;45.988;18.664;2022-07-29T00:20:51;100523.78;;;19.29;69.37
69772;BME280;57046;45.988;18.664;2022-07-29T00:23:16;100524.63;;;19.33;66.71
69772;BME280;57046;45.988;18.664;2022-07-29T00:25:42;100521.88;;;19.33;67.06
69772;BME280;57046;45.988;18.664;2022-07-29T00:28:07;100519.06;;;19.26;67.30
69772;BME280;57046;45.988;18.664;2022-07-29T00:30:32;100509.47;;;19.06;67.74
69772;BME280;57046;45.988;18.664;2022-07-29T00:32:58;100519.53;;;19.31;67.42
69772;BME280;57046;45.988;18.664;2022-07-29T00:35:23;100512.81;;;19.25;67.64
69772;BME280;57046;45.988;18.664;2022-07-29T00:37:48;100524.91;;;19.21;69.30
69772;BME280;57046;45.988;18.664;2022-07-29T00:40:14;100516.78;;;19.31;68.36
69772;BME280;57046;45.988;18.664;2022-07-29T00:42:46;100511.84;;;19.07;70.37
69772;BME280;57046;45.988;18.664;2022-07-29T00:45:13;100513.94;;;19.21;68.48
69772;BME280;57046;45.988;18.664;2022-07-29T00:47:39;100514.38;;;19.26;68.03
69772;BME280;57046;45.988;18.664;2022-07-29T00:50:06;100519.50;;;19.28;67.50
69772;BME280;57046;45.988;18.664;2022-07-29T00:52:33;100516.44;;;19.00;69.38
69772;BME280;57046;45.988;18.664;2022-07-29T00:55:00;100513.63;;;18.93;70.91
69772;BME280;57046;45.988;18.664;2022-07-29T00:57:27;100527.72;;;18.91;70.41
69772;BME280;57046;45.988;18.664;2022-07-29T00:59:52;100523.31;;;18.83;70.11
69772;BME280;57046;45.988;18.664;2022-07-29T01:02:17;100525.69;;;18.85;69.85
69772;BME280;57046;45.988;18.664;2022-07-29T01:04:43;100526.84;;;18.84;70.44
69772;BME280;57046;45.988;18.664;2022-07-29T01:07:08;100521.22;;;18.73;70.83
69772;BME280;57046;45.988;18.664;2022-07-29T01:09:35;100521.50;;;18.61;71.72
69772;BME280;57046;45.988;18.664;2022-07-29T01:12:02;100519.47;;;18.58;71.58
69772;BME280;57046;45.988;18.664;2022-07-29T01:14:28;100510.06;;;18.55;72.06
69772;BME280;57046;45.988;18.664;2022-07-29T01:16:59;100520.16;;;18.51;72.33
69772;BME280;57046;45.988;18.664;2022-07-29T01:21:59;100509.00;;;18.37;73.69
69772;BME280;57046;45.988;18.664;2022-07-29T01:30:38;100520.00;;;18.41;74.04
69772;BME280;57046;45.988;18.664;2022-07-29T01:33:07;100508.78;;;18.49;73.21
69772;BME280;57046;45.988;18.664;2022-07-29T01:35:39;100509.66;;;18.53;73.54
69772;BME280;57046;45.988;18.664;2022-07-29T01:38:09;100527.84;;;18.42;73.56
69772;BME280;57046;45.988;18.664;2022-07-29T01:40:43;100525.00;;;18.35;73.89
69772;BME280;57046;45.988;18.664;2022-07-29T01:43:12;100525.41;;;18.34;74.12
69772;BME280;57046;45.988;18.664;2022-07-29T01:45:56;100521.72;;;18.22;74.95
69772;BME280;57046;45.988;18.664;2022-07-29T01:48:26;100519.72;;;18.19;75.38
69772;BME280;57046;45.988;18.664;2022-07-29T01:51:04;100520.03;;;18.14;75.89
69772;BME280;57046;45.988;18.664;2022-07-29T01:56:10;100508.22;;;18.10;76.07
69772;BME280;57046;45.988;18.664;2022-07-29T01:58:38;100504.25;;;18.04;76.14
69772;BME280;57046;45.988;18.664;2022-07-29T02:01:06;100486.84;;;17.90;76.27
69772;BME280;57046;45.988;18.664;2022-07-29T02:03:34;100502.00;;;18.10;75.52
69772;BME280;57046;45.988;18.664;2022-07-29T02:06:02;100512.16;;;18.09;75.72
69772;BME280;57046;45.988;18.664;2022-07-29T02:08:30;100491.16;;;17.91;76.09
69772;BME280;57046;45.988;18.664;2022-07-29T02:10:58;100506.81;;;17.94;75.35
69772;BME280;57046;45.988;18.664;2022-07-29T02:13:25;100499.00;;;17.92;75.47
69772;BME280;57046;45.988;18.664;2022-07-29T02:15:53;100494.16;;;17.82;76.22
69772;BME280;57046;45.988;18.664;2022-07-29T02:18:22;100506.03;;;17.93;75.98
69772;BME280;57046;45.988;18.664;2022-07-29T02:20:50;100490.34;;;17.90;75.67
69772;BME280;57046;45.988;18.664;2022-07-29T02:23:21;100502.59;;;17.96;75.34
69772;BME280;57046;45.988;18.664;2022-07-29T02:25:55;100498.66;;;17.97;74.46
69772;BME280;57046;45.988;18.664;2022-07-29T02:28:26;100504.56;;;17.99;74.42
69772;BME280;57046;45.988;18.664;2022-07-29T02:30:53;100501.47;;;18.01;75.31
69772;BME280;57046;45.988;18.664;2022-07-29T02:33:20;100499.75;;;17.89;76.38
69772;BME280;57046;45.988;18.664;2022-07-29T02:35:47;100494.28;;;17.89;76.73
69772;BME280;57046;45.988;18.664;2022-07-29T02:38:16;100505.22;;;17.89;75.16
69772;BME280;57046;45.988;18.664;2022-07-29T02:40:42;100497.41;;;17.91;74.04
69772;BME280;57046;45.988;18.664;2022-07-29T02:43:09;100495.38;;;17.85;74.57
69772;BME280;57046;45.988;18.664;2022-07-29T02:45:34;100494.97;;;17.86;75.81
69772;BME280;57046;45.988;18.664;2022-07-29T02:48:05;100505.09;;;17.82;76.24
69772;BME280;57046;45.988;18.664;2022-07-29T02:50:37;100501.56;;;17.82;76.52
69772;BME280;57046;45.988;18.664;2022-07-29T02:53:15;100512.13;;;17.83;76.20
69772;BME280;57046;45.988;18.664;2022-07-29T02:55:43;100520.22;;;17.76;77.58
69772;BME280;57046;45.988;18.664;2022-07-29T02:58:21;100516.72;;;17.75;76.16
69772;BME280;57046;45.988;18.664;2022-07-29T03:00:49;100519.75;;;17.70;76.99
69772;BME280;57046;45.988;18.664;2022-07-29T03:03:18;100510.69;;;17.66;78.35
69772;BME280;57046;45.988;18.664;2022-07-29T03:05:44;100516.78;;;17.56;78.49
69772;BME280;57046;45.988;18.664;2022-07-29T03:08:11;100524.25;;;17.59;78.87
69772;BME280;57046;45.988;18.664;2022-07-29T03:10:39;100527.03;;;17.63;78.97
69772;BME280;57046;45.988;18.664;2022-07-29T03:13:09;100514.53;;;17.62;79.02
69772;BME280;57046;45.988;18.664;2022-07-29T03:15:35;100521.22;;;17.64;78.33
69772;BME280;57046;45.988;18.664;2022-07-29T03:18:00;100525.31;;;17.55;79.04
69772;BME280;57046;45.988;18.664;2022-07-29T03:20:26;100522.59;;;17.55;79.12
69772;BME280;57046;45.988;18.664;2022-07-29T03:22:52;100526.91;;;17.56;78.69
69772;BME280;57046;45.988;18.664;2022-07-29T03:25:19;100528.91;;;17.59;78.89
69772;BME280;57046;45.988;18.664;2022-07-29T03:27:45;100518.34;;;17.57;78.43
69772;BME280;57046;45.988;18.664;2022-07-29T03:30:12;100528.50;;;17.57;78.61
69772;BME280;57046;45.988;18.664;2022-07-29T03:32:38;100521.50;;;17.59;79.42
69772;BME280;57046;45.988;18.664;2022-07-29T03:35:05;100524.28;;;17.63;79.52
69772;BME280;57046;45.988;18.664;2022-07-29T03:37:31;100529.69;;;17.59;80.06
69772;BME280;57046;45.988;18.664;2022-07-29T03:39:57;100520.00;;;17.62;80.50
69772;BME280;57046;45.988;18.664;2022-07-29T03:42:28;100508.06;;;17.51;80.53
69772;BME280;57046;45.988;18.664;2022-07-29T03:45:02;100521.34;;;17.52;79.45
69772;BME280;57046;45.988;18.664;2022-07-29T03:47:29;100522.88;;;17.50;78.87
69772;BME280;57046;45.988;18.664;2022-07-29T03:49:59;100527.88;;;17.44;78.47
69772;BME280;57046;45.988;18.664;2022-07-29T03:52:26;100534.53;;;17.47;79.28
69772;BME280;57046;45.988;18.664;2022-07-29T03:54:52;100541.59;;;17.48;78.29
69772;BME280;57046;45.988;18.664;2022-07-29T03:57:20;100541.59;;;17.48;78.84
69772;BME280;57046;45.988;18.664;2022-07-29T03:59:48;100544.44;;;17.55;79.45
69772;BME280;57046;45.988;18.664;2022-07-29T04:02:14;100533.97;;;17.57;79.16
69772;BME280;57046;45.988;18.664;2022-07-29T04:04:39;100528.22;;;17.62;79.06
69772;BME280;57046;45.988;18.664;2022-07-29T04:07:05;100539.63;;;17.67;78.22
69772;BME280;57046;45.988;18.664;2022-07-29T04:09:30;100524.00;;;17.68;78.04
69772;BME280;57046;45.988;18.664;2022-07-29T04:11:56;100530.84;;;17.81;79.99
69772;BME280;57046;45.988;18.664;2022-07-29T04:14:21;100521.13;;;17.84;78.73
69772;BME280;57046;45.988;18.664;2022-07-29T04:16:47;100508.72;;;17.90;78.23
69772;BME280;57046;45.988;18.664;2022-07-29T04:19:12;100513.97;;;18.02;79.01
69772;BME280;57046;45.988;18.664;2022-07-29T04:21:39;100520.47;;;18.16;79.29
69772;BME280;57046;45.988;18.664;2022-07-29T04:24:05;100509.66;;;18.27;77.23
69772;BME280;57046;45.988;18.664;2022-07-29T04:26:31;100510.22;;;18.40;77.31
69772;BME280;57046;45.988;18.664;2022-07-29T04:28:56;100519.41;;;18.54;76.79
69772;BME280;57046;45.988;18.664;2022-07-29T04:31:22;100512.13;;;18.65;76.21
69772;BME280;57046;45.988;18.664;2022-07-29T04:33:47;100510.22;;;18.69;76.23
69772;BME280;57046;45.988;18.664;2022-07-29T04:36:13;100525.69;;;18.88;75.26
69772;BME280;57046;45.988;18.664;2022-07-29T04:38:38;100519.53;;;18.95;74.36
69772;BME280;57046;45.988;18.664;2022-07-29T04:41:04;100509.38;;;18.99;73.71
69772;BME280;57046;45.988;18.664;2022-07-29T04:43:29;100515.72;;;19.06;73.43
69772;BME280;57046;45.988;18.664;2022-07-29T04:45:55;100522.13;;;19.17;73.47
69772;BME280;57046;45.988;18.664;2022-07-29T04:48:20;100521.09;;;19.32;72.81
69772;BME280;57046;45.988;18.664;2022-07-29T04:50:45;100521.28;;;19.50;71.75
69772;BME280;57046;45.988;18.664;2022-07-29T04:53:11;100519.13;;;19.73;68.78
69772;BME280;57046;45.988;18.664;2022-07-29T04:55:36;100501.53;;;19.78;68.77
69772;BME280;57046;45.988;18.664;2022-07-29T04:58:01;100522.44;;;19.93;69.15
69772;BME280;57046;45.988;18.664;2022-07-29T05:00:27;100510.28;;;19.94;69.45
69772;BME280;57046;45.988;18.664;2022-07-29T05:02:52;100538.97;;;20.07;67.77
69772;BME280;57046;45.988;18.664;2022-07-29T05:05:17;100526.06;;;20.11;67.72
69772;BME280;57046;45.988;18.664;2022-07-29T05:07:43;100532.84;;;20.28;68.68
69772;BME280;57046;45.988;18.664;2022-07-29T05:10:09;100532.50;;;20.33;67.88
69772;BME280;57046;45.988;18.664;2022-07-29T05:12:34;100533.38;;;20.48;67.20
69772;BME280;57046;45.988;18.664;2022-07-29T05:15:00;100533.41;;;20.58;67.52
69772;BME280;57046;45.988;18.664;2022-07-29T05:17:25;100542.13;;;20.71;67.50
69772;BME280;57046;45.988;18.664;2022-07-29T05:19:50;100540.19;;;20.86;67.42
69772;BME280;57046;45.988;18.664;2022-07-29T05:22:18;100552.06;;;21.07;66.00
69772;BME280;57046;45.988;18.664;2022-07-29T05:24:43;100555.69;;;21.33;64.87
69772;BME280;57046;45.988;18.664;2022-07-29T05:27:09;100539.63;;;21.56;64.03
69772;BME280;57046;45.988;18.664;2022-07-29T05:29:34;100548.66;;;21.67;64.91
69772;BME280;57046;45.988;18.664;2022-07-29T05:31:59;100549.84;;;21.80;63.94
69772;BME280;57046;45.988;18.664;2022-07-29T05:34:25;100548.28;;;21.93;64.55
69772;BME280;57046;45.988;18.664;2022-07-29T05:36:50;100547.09;;;22.01;64.56
69772;BME280;57046;45.988;18.664;2022-07-29T05:39:15;100532.53;;;22.15;63.90
69772;BME280;57046;45.988;18.664;2022-07-29T05:41:41;100541.16;;;22.27;63.72
69772;BME280;57046;45.988;18.664;2022-07-29T05:44:06;100543.91;;;22.38;63.77
69772;BME280;57046;45.988;18.664;2022-07-29T05:46:31;100546.22;;;22.47;64.44
69772;BME280;57046;45.988;18.664;2022-07-29T05:49:00;100542.28;;;22.48;62.23
69772;BME280;57046;45.988;18.664;2022-07-29T05:51:25;100541.06;;;22.56;61.98
69772;BME280;57046;45.988;18.664;2022-07-29T05:53:51;100537.47;;;22.80;60.10
69772;BME280;57046;45.988;18.664;2022-07-29T05:56:16;100536.22;;;22.95;59.98
69772;BME280;57046;45.988;18.664;2022-07-29T05:58:41;100536.13;;;23.13;58.93
69772;BME280;57046;45.988;18.664;2022-07-29T06:01:07;100525.81;;;23.20;59.37
69772;BME280;57046;45.988;18.664;2022-07-29T06:03:32;100538.31;;;23.39;58.15
69772;BME280;57046;45.988;18.664;2022-07-29T06:05:57;100537.91;;;23.44;57.62
69772;BME280;57046;45.988;18.664;2022-07-29T06:08:23;100546.88;;;23.59;56.16
69772;BME280;57046;45.988;18.664;2022-07-29T06:10:48;100534.47;;;23.85;57.61
69772;BME280;57046;45.988;18.664;2022-07-29T06:13:14;100544.50;;;24.05;57.55
69772;BME280;57046;45.988;18.664;2022-07-29T06:15:39;100545.34;;;23.99;56.93
69772;BME280;57046;45.988;18.664;2022-07-29T06:18:05;100545.31;;;24.02;57.04
69772;BME280;57046;45.988;18.664;2022-07-29T06:20:31;100541.09;;;23.91;55.83
69772;BME280;57046;45.988;18.664;2022-07-29T06:22:56;100555.25;;;23.96;56.98
69772;BME280;57046;45.988;18.664;2022-07-29T06:25:22;100550.75;;;24.16;58.08
69772;BME280;57046;45.988;18.664;2022-07-29T06:27:47;100535.69;;;24.24;55.85
69772;BME280;57046;45.988;18.664;2022-07-29T06:30:13;100547.56;;;24.21;56.40
69772;BME280;57046;45.988;18.664;2022-07-29T06:32:38;100549.84;;;24.26;55.79
69772;BME280;57046;45.988;18.664;2022-07-29T06:35:04;100546.69;;;24.28;54.74
69772;BME280;57046;45.988;18.664;2022-07-29T06:37:30;100550.53;;;24.38;54.73
69772;BME280;57046;45.988;18.664;2022-07-29T06:39:56;100541.38;;;24.44;55.25
69772;BME280;57046;45.988;18.664;2022-07-29T06:42:22;100547.41;;;24.69;56.51
69772;BME280;57046;45.988;18.664;2022-07-29T06:44:48;100542.34;;;24.64;54.01
69772;BME280;57046;45.988;18.664;2022-07-29T06:47:13;100541.66;;;24.87;55.57
69772;BME280;57046;45.988;18.664;2022-07-29T06:49:39;100549.03;;;24.97;55.48
69772;BME280;57046;45.988;18.664;2022-07-29T06:52:05;100547.56;;;25.19;54.48
69772;BME280;57046;45.988;18.664;2022-07-29T06:54:30;100552.31;;;25.72;53.24
69772;BME280;57046;45.988;18.664;2022-07-29T06:56:56;100539.06;;;25.83;53.49
69772;BME280;57046;45.988;18.664;2022-07-29T06:59:22;100548.28;;;25.54;51.77
69772;BME280;57046;45.988;18.664;2022-07-29T07:01:47;100553.41;;;25.78;53.88
69772;BME280;57046;45.988;18.664;2022-07-29T07:04:13;100556.66;;;25.73;53.68
69772;BME280;57046;45.988;18.664;2022-07-29T07:06:39;100552.84;;;25.64;50.42
69772;BME280;57046;45.988;18.664;2022-07-29T07:09:05;100556.78;;;25.90;52.24
69772;BME280;57046;45.988;18.664;2022-07-29T07:11:30;100552.19;;;26.03;52.36
69772;BME280;57046;45.988;18.664;2022-07-29T07:13:56;100540.78;;;25.77;52.70
69772;BME280;57046;45.988;18.664;2022-07-29T07:16:22;100541.97;;;25.76;50.15
69772;BME280;57046;45.988;18.664;2022-07-29T07:18:48;100546.44;;;26.17;50.57
69772;BME280;57046;45.988;18.664;2022-07-29T07:21:13;100539.72;;;26.14;49.75
69772;BME280;57046;45.988;18.664;2022-07-29T07:23:39;100542.22;;;26.52;51.13
69772;BME280;57046;45.988;18.664;2022-07-29T07:26:05;100541.50;;;26.48;48.42
69772;BME280;57046;45.988;18.664;2022-07-29T07:28:31;100539.63;;;26.41;48.54
69772;BME280;57046;45.988;18.664;2022-07-29T07:30:57;100543.06;;;26.68;47.93
69772;BME280;57046;45.988;18.664;2022-07-29T07:33:23;100536.94;;;26.77;47.97
69772;BME280;57046;45.988;18.664;2022-07-29T07:35:49;100542.56;;;26.93;47.21
69772;BME280;57046;45.988;18.664;2022-07-29T07:38:15;100542.28;;;27.07;46.12
69772;BME280;57046;45.988;18.664;2022-07-29T07:40:41;100540.22;;;27.27;45.49
69772;BME280;57046;45.988;18.664;2022-07-29T07:43:07;100536.69;;;27.59;47.53
69772;BME280;57046;45.988;18.664;2022-07-29T07:45:32;100528.97;;;27.67;45.83
69772;BME280;57046;45.988;18.664;2022-07-29T07:47:58;100538.75;;;28.04;45.32
69772;BME280;57046;45.988;18.664;2022-07-29T07:50:26;100538.31;;;28.21;45.49
69772;BME280;57046;45.988;18.664;2022-07-29T07:52:53;100537.09;;;28.22;43.88
69772;BME280;57046;45.988;18.664;2022-07-29T07:55:20;100531.78;;;28.28;42.88
69772;BME280;57046;45.988;18.664;2022-07-29T07:57:51;100539.41;;;28.40;42.64
69772;BME280;57046;45.988;18.664;2022-07-29T08:00:17;100539.22;;;28.47;42.89
69772;BME280;57046;45.988;18.664;2022-07-29T08:02:43;100542.53;;;28.71;43.23
69772;BME280;57046;45.988;18.664;2022-07-29T08:05:10;100541.53;;;28.77;44.17
69772;BME280;57046;45.988;18.664;2022-07-29T08:07:36;100537.13;;;29.18;43.36
69772;BME280;57046;45.988;18.664;2022-07-29T08:10:02;100541.03;;;29.20;41.79
69772;BME280;57046;45.988;18.664;2022-07-29T08:12:28;100526.09;;;29.14;41.17
69772;BME280;57046;45.988;18.664;2022-07-29T08:14:53;100531.47;;;29.34;41.37
69772;BME280;57046;45.988;18.664;2022-07-29T08:17:19;100541.72;;;29.62;42.91
69772;BME280;57046;45.988;18.664;2022-07-29T08:19:44;100533.44;;;29.71;43.62
69772;BME280;57046;45.988;18.664;2022-07-29T08:22:10;100535.56;;;29.67;40.65
69772;BME280;57046;45.988;18.664;2022-07-29T08:24:35;100547.13;;;29.91;41.79
69772;BME280;57046;45.988;18.664;2022-07-29T08:27:01;100546.34;;;30.03;41.46
69772;BME280;57046;45.988;18.664;2022-07-29T08:29:26;100542.41;;;30.13;39.28
69772;BME280;57046;45.988;18.664;2022-07-29T08:31:51;100536.59;;;30.42;39.38
69772;BME280;57046;45.988;18.664;2022-07-29T08:34:17;100540.63;;;30.63;41.80
69772;BME280;57046;45.988;18.664;2022-07-29T08:36:42;100537.78;;;30.75;39.14
69772;BME280;57046;45.988;18.664;2022-07-29T08:39:07;100541.53;;;30.82;39.12
69772;BME280;57046;45.988;18.664;2022-07-29T08:41:33;100545.19;;;30.48;38.10
69772;BME280;57046;45.988;18.664;2022-07-29T08:43:58;100538.94;;;30.44;38.78
69772;BME280;57046;45.988;18.664;2022-07-29T08:46:23;100542.31;;;30.60;39.42
69772;BME280;57046;45.988;18.664;2022-07-29T08:48:52;100541.31;;;30.76;38.55
69772;BME280;57046;45.988;18.664;2022-07-29T08:51:20;100538.34;;;30.92;38.63
69772;BME280;57046;45.988;18.664;2022-07-29T08:53:47;100549.72;;;30.98;39.54
69772;BME280;57046;45.988;18.664;2022-07-29T08:56:15;100536.91;;;31.09;37.97
69772;BME280;57046;45.988;18.664;2022-07-29T08:58:41;100547.50;;;31.23;38.53
69772;BME280;57046;45.988;18.664;2022-07-29T09:01:07;100543.53;;;31.43;39.93
69772;BME280;57046;45.988;18.664;2022-07-29T09:03:36;100539.81;;;31.46;39.20
69772;BME280;57046;45.988;18.664;2022-07-29T09:06:03;100534.09;;;31.49;41.37
69772;BME280;57046;45.988;18.664;2022-07-29T09:08:31;100536.69;;;31.44;38.38
69772;BME280;57046;45.988;18.664;2022-07-29T09:10:57;100541.19;;;31.41;37.43
69772;BME280;57046;45.988;18.664;2022-07-29T09:13:23;100537.31;;;31.39;40.65
69772;BME280;57046;45.988;18.664;2022-07-29T09:15:49;100529.94;;;31.54;38.79
69772;BME280;57046;45.988;18.664;2022-07-29T09:18:35;100533.56;;;31.72;38.59
69772;BME280;57046;45.988;18.664;2022-07-29T09:21:02;100521.91;;;31.74;39.41
69772;BME280;57046;45.988;18.664;2022-07-29T09:23:28;100525.34;;;31.87;38.66
69772;BME280;57046;45.988;18.664;2022-07-29T09:26:05;100527.06;;;32.03;38.58
69772;BME280;57046;45.988;18.664;2022-07-29T09:28:31;100508.41;;;31.91;37.37
69772;BME280;57046;45.988;18.664;2022-07-29T09:30:58;100514.50;;;32.07;37.11
69772;BME280;57046;45.988;18.664;2022-07-29T09:33:31;100512.28;;;32.02;36.85
69772;BME280;57046;45.988;18.664;2022-07-29T09:38:30;100498.97;;;32.24;40.00
69772;BME280;57046;45.988;18.664;2022-07-29T09:40:58;100523.69;;;32.35;38.92
69772;BME280;57046;45.988;18.664;2022-07-29T09:43:24;100513.38;;;32.50;36.82
69772;BME280;57046;45.988;18.664;2022-07-29T09:45:49;100513.38;;;32.50;37.64
69772;BME280;57046;45.988;18.664;2022-07-29T09:48:20;100497.53;;;32.47;35.02
69772;BME280;57046;45.988;18.664;2022-07-29T09:50:47;100509.78;;;32.77;36.35
69772;BME280;57046;45.988;18.664;2022-07-29T09:55:55;100504.56;;;33.03;35.06
69772;BME280;57046;45.988;18.664;2022-07-29T09:58:21;100504.72;;;32.99;35.31
69772;BME280;57046;45.988;18.664;2022-07-29T10:00:49;100505.81;;;33.02;35.63
69772;BME280;57046;45.988;18.664;2022-07-29T10:03:16;100499.06;;;33.08;33.99
69772;BME280;57046;45.988;18.664;2022-07-29T10:06:03;100499.66;;;33.21;32.59
69772;BME280;57046;45.988;18.664;2022-07-29T10:08:30;100494.31;;;33.33;33.22
69772;BME280;57046;45.988;18.664;2022-07-29T10:11:15;100490.38;;;33.39;32.51
69772;BME280;57046;45.988;18.664;2022-07-29T10:13:47;100483.47;;;33.49;33.31
69772;BME280;57046;45.988;18.664;2022-07-29T10:16:17;100488.31;;;33.49;32.37
69772;BME280;57046;45.988;18.664;2022-07-29T10:18:46;100488.56;;;33.60;33.55
69772;BME280;57046;45.988;18.664;2022-07-29T10:21:14;100480.78;;;33.55;32.29
69772;BME280;57046;45.988;18.664;2022-07-29T10:23:42;100477.00;;;33.67;31.75
69772;BME280;57046;45.988;18.664;2022-07-29T10:26:10;100478.66;;;33.73;33.28
69772;BME280;57046;45.988;18.664;2022-07-29T10:28:37;100475.94;;;33.64;32.74
69772;BME280;57046;45.988;18.664;2022-07-29T10:31:06;100484.88;;;33.78;31.99
69772;BME280;57046;45.988;18.664;2022-07-29T10:33:43;100480.97;;;33.75;33.23
69772;BME280;57046;45.988;18.664;2022-07-29T10:39:20;100471.97;;;33.95;32.40
69772;BME280;57046;45.988;18.664;2022-07-29T10:42:22;100475.72;;;33.92;32.42
69772;BME280;57046;45.988;18.664;2022-07-29T10:44:50;100470.50;;;33.99;32.24
69772;BME280;57046;45.988;18.664;2022-07-29T10:47:24;100460.84;;;34.00;31.83
69772;BME280;57046;45.988;18.664;2022-07-29T10:50:04;100474.59;;;33.98;30.44
69772;BME280;57046;45.988;18.664;2022-07-29T10:52:55;100462.06;;;33.61;31.52
69772;BME280;57046;45.988;18.664;2022-07-29T10:55:37;100464.81;;;33.70;31.56
69772;BME280;57046;45.988;18.664;2022-07-29T11:00:50;100459.34;;;34.14;32.41
69772;BME280;57046;45.988;18.664;2022-07-29T11:03:48;100462.94;;;34.29;32.03
69772;BME280;57046;45.988;18.664;2022-07-29T11:06:15;100457.41;;;34.20;32.71
69772;BME280;57046;45.988;18.664;2022-07-29T11:08:42;100460.81;;;34.39;30.96
69772;BME280;57046;45.988;18.664;2022-07-29T11:13:46;100458.59;;;34.43;32.86
69772;BME280;57046;45.988;18.664;2022-07-29T11:16:15;100448.53;;;34.65;31.01
69772;BME280;57046;45.988;18.664;2022-07-29T11:19:34;100449.78;;;34.50;30.54
69772;BME280;57046;45.988;18.664;2022-07-29T11:21:54;100432.41;;;34.81;30.82
69772;BME280;57046;45.988;18.664;2022-07-29T11:24:23;100437.63;;;34.88;30.42
69772;BME280;57046;45.988;18.664;2022-07-29T11:27:09;100441.63;;;34.81;30.04
69772;BME280;57046;45.988;18.664;2022-07-29T11:29:52;100428.66;;;34.84;31.00
69772;BME280;57046;45.988;18.664;2022-07-29T11:32:20;100430.75;;;34.89;30.15
69772;BME280;57046;45.988;18.664;2022-07-29T11:34:48;100427.75;;;34.92;31.68
69772;BME280;57046;45.988;18.664;2022-07-29T11:37:17;100422.13;;;34.92;30.97
69772;BME280;57046;45.988;18.664;2022-07-29T11:39:47;100429.56;;;34.95;31.64
69772;BME280;57046;45.988;18.664;2022-07-29T11:45:04;100426.03;;;35.15;30.69
69772;BME280;57046;45.988;18.664;2022-07-29T11:47:32;100412.50;;;35.34;29.77
69772;BME280;57046;45.988;18.664;2022-07-29T11:50:00;100414.53;;;35.33;30.85
69772;BME280;57046;45.988;18.664;2022-07-29T11:52:41;100412.56;;;35.19;30.26
69772;BME280;57046;45.988;18.664;2022-07-29T11:55:06;100423.53;;;35.02;30.48
69772;BME280;57046;45.988;18.664;2022-07-29T11:57:33;100423.28;;;35.00;31.44
69772;BME280;57046;45.988;18.664;2022-07-29T11:59:59;100419.16;;;35.16;30.88
69772;BME280;57046;45.988;18.664;2022-07-29T12:02:38;100411.78;;;35.39;30.47
69772;BME280;57046;45.988;18.664;2022-07-29T12:05:04;100410.47;;;35.34;30.65
69772;BME280;57046;45.988;18.664;2022-07-29T12:07:33;100417.66;;;35.55;31.67
69772;BME280;57046;45.988;18.664;2022-07-29T12:09:59;100405.09;;;35.56;30.93
69772;BME280;57046;45.988;18.664;2022-07-29T12:12:25;100397.75;;;35.79;30.05
69772;BME280;57046;45.988;18.664;2022-07-29T12:14:51;100383.88;;;35.76;30.22
69772;BME280;57046;45.988;18.664;2022-07-29T12:17:31;100398.28;;;35.83;29.63
69772;BME280;57046;45.988;18.664;2022-07-29T12:19:57;100395.97;;;35.82;29.65
69772;BME280;57046;45.988;18.664;2022-07-29T12:22:27;100392.03;;;35.73;28.88
69772;BME280;57046;45.988;18.664;2022-07-29T12:24:54;100392.22;;;35.90;29.27
69772;BME280;57046;45.988;18.664;2022-07-29T12:27:20;100394.28;;;35.69;30.44
69772;BME280;57046;45.988;18.664;2022-07-29T12:29:55;100384.75;;;35.87;29.04
69772;BME280;57046;45.988;18.664;2022-07-29T12:32:21;100384.28;;;35.89;30.44
69772;BME280;57046;45.988;18.664;2022-07-29T12:34:46;100388.13;;;35.91;29.42
69772;BME280;57046;45.988;18.664;2022-07-29T12:37:13;100388.19;;;35.97;28.84
69772;BME280;57046;45.988;18.664;2022-07-29T12:39:39;100381.63;;;36.05;29.96
69772;BME280;57046;45.988;18.664;2022-07-29T12:42:12;100385.88;;;36.21;29.98
69772;BME280;57046;45.988;18.664;2022-07-29T12:44:48;100382.72;;;36.13;28.88
69772;BME280;57046;45.988;18.664;2022-07-29T12:47:14;100374.03;;;35.86;30.76
69772;BME280;57046;45.988;18.664;2022-07-29T12:49:40;100376.19;;;35.76;29.53
69772;BME280;57046;45.988;18.664;2022-07-29T12:52:26;100362.03;;;35.91;28.68
69772;BME280;57046;45.988;18.664;2022-07-29T12:54:52;100367.22;;;35.98;29.52
69772;BME280;57046;45.988;18.664;2022-07-29T12:57:17;100367.09;;;35.87;29.61
69772;BME280;57046;45.988;18.664;2022-07-29T12:59:42;100360.16;;;35.82;29.19
69772;BME280;57046;45.988;18.664;2022-07-29T13:02:20;100362.97;;;36.08;28.52
69772;BME280;57046;45.988;18.664;2022-07-29T13:04:58;100357.72;;;35.95;30.03
69772;BME280;57046;45.988;18.664;2022-07-29T13:07:29;100353.03;;;35.87;29.55
69772;BME280;57046;45.988;18.664;2022-07-29T13:12:35;100360.97;;;36.14;28.70
69772;BME280;57046;45.988;18.664;2022-07-29T13:15:12;100350.63;;;36.31;27.80